Startpagina
METAR-TAF:

METAR-TAF

Vliegvelden :

Brussels South Charleroi Airport

Charleroi, België

breedte: 50-28N, lengte: 004-27E, hoogte: 187 m

Actueel weer

Dit bericht is 32 minuten geleden gemaakt, om 16:50 UTC
Wind 5 kt uit het zuidwesten
Temperatuur 14°C
Vochtigheid 58%
Druk 1030 hPa
Zicht 10 km of meer
Weinig wolken op 3800 ft

METAR: EBCI 061650Z 23005KT 9999 FEW038 14/06 Q1030 NOSIG

Tijdstip: 19:22 (17:22 UTC)

Verwachting

Dit bericht is 6 uur en het 18 minuten geleden gemaakt, om 11:04 UTC
Verwachting geldig van 06 om 12 UTC tot 07 om 18 UTC
Wind 6 kt uit het westzuidwesten
Zicht 10 km of meer
Weinig wolken op 4000 ft

TAF: EBCI 061104Z 0612/0718 24006KT 9999 FEW040

Waarnemingen en weersverwachtingen van meer dan 4000 vliegvelden (METAR en TAF).

De beschikbare stations zijn de gele en rode punten op de kaart.

Ga met uw muis naar het station om de naam te zien.

Klik dan om waarnemingen en weersverwachtingen te zien.

kaart wijzigen: klik op de groene knoppen met een zwart kruis om in te zoomen, op de groene knop met een streepje om uit te zoomen of op de groene pijlen voor aangrenzende kaarten.


METAR-TAF: